HTZA/ZNZ METAR and TAF weather

Enter ICAO airport designator
Station Type Date Time Source
HTZA METAR 2018/01/22 20:00 UTC NOAA

HTZA 222000Z 00000KT 9999 FEW018 26/23 Q1011 NOSIG


Station Type Date Time Source
HTZA Decoded METAR 2018/01/22 20:00 UTC NOAA

Zanzibar / Kisauni, Tanzania (HTZA) 06-13S 039-13E 15M
Jan 22, 2018 - 03:00 PM EST / 2018.01.22 2000 UTC
Wind: Calm:0
Visibility: greater than 7 mile(s):0
Sky conditions: mostly clear
Temperature: 78 F (26 C)
Dew Point: 73 F (23 C)
Relative Humidity: 83%
Pressure (altimeter): 29.85 in. Hg (1011 hPa)
ob: HTZA 222000Z 00000KT 9999 FEW018 26/23 Q1011 NOSIG
cycle: 20

Station Type Date Time Source
HTZA TAF 2018/01/22 06:54 UTC NOAA

TAF HTZA 220500Z 2206/2306 33010KT 9999 BKN018 SCT080
BECMG 2210/2212 04015KT SCT022
BECMG 2217/2219 02005KT
BECMG 2301/2303 33010KT SCT016 BKN080


Example: see airport list